createdAt,value
2023-03-17T00:00:44.428Z,1.60
2023-03-17T00:03:18.846Z,1.35
2023-03-17T00:05:45.506Z,1.23
2023-03-17T00:08:18.585Z,1.23
2023-03-17T00:10:45.095Z,1.63
2023-03-17T00:13:12.509Z,1.13
2023-03-17T00:15:39.240Z,2.25
2023-03-17T00:18:13.790Z,1.40
2023-03-17T00:20:40.437Z,1.50
2023-03-17T00:23:14.526Z,1.52
2023-03-17T00:25:41.009Z,1.35
2023-03-17T00:28:16.013Z,1.48
2023-03-17T00:30:42.495Z,1.10
2023-03-17T00:33:11.655Z,1.30
2023-03-17T00:35:38.932Z,1.65
2023-03-17T00:38:06.989Z,1.33
2023-03-17T00:40:33.647Z,1.40
2023-03-17T00:43:00.159Z,1.75
2023-03-17T00:45:27.009Z,1.60
2023-03-17T00:47:55.041Z,1.30
2023-03-17T00:50:25.539Z,1.35
2023-03-17T00:52:54.489Z,1.20
2023-03-17T00:55:21.939Z,1.42
2023-03-17T00:57:49.233Z,1.55
2023-03-17T01:00:21.802Z,1.55
2023-03-17T01:02:48.792Z,1.45
2023-03-17T01:05:15.699Z,1.48
2023-03-17T01:07:45.893Z,1.20
2023-03-17T01:10:16.315Z,1.38
2023-03-17T01:12:43.556Z,1.30
2023-03-17T01:15:10.349Z,1.50
2023-03-17T01:17:36.868Z,1.42
2023-03-17T01:20:03.950Z,1.50
2023-03-17T01:22:30.434Z,1.33
2023-03-17T01:24:58.275Z,1.27
2023-03-17T01:27:24.803Z,1.10
2023-03-17T01:29:52.612Z,1.20
2023-03-17T01:32:19.108Z,1.33
2023-03-17T01:34:45.653Z,1.58
2023-03-17T01:37:12.194Z,1.20
2023-03-17T01:39:38.657Z,1.45
2023-03-17T01:42:07.250Z,1.42
2023-03-17T01:44:33.796Z,1.38
2023-03-17T01:47:00.380Z,1.75
2023-03-17T01:49:30.659Z,1.50
2023-03-17T01:52:02.673Z,1.27
2023-03-17T01:54:35.673Z,1.73
2023-03-17T01:57:07.155Z,1.40
2023-03-17T01:59:39.312Z,1.33
2023-03-17T02:02:09.544Z,1.80
2023-03-17T02:04:38.173Z,1.50
2023-03-17T02:07:05.248Z,1.70
2023-03-17T02:09:33.819Z,1.58
2023-03-17T02:12:02.323Z,1.40
2023-03-17T02:14:29.145Z,1.40
2023-03-17T02:16:57.012Z,1.42
2023-03-17T02:19:23.536Z,1.33
2023-03-17T02:21:53.750Z,1.13
2023-03-17T02:24:27.802Z,1.17
2023-03-17T02:26:57.778Z,1.50
2023-03-17T02:29:24.719Z,1.40
2023-03-17T02:31:51.697Z,1.63
2023-03-17T02:34:18.235Z,1.40
2023-03-17T02:36:44.791Z,1.48
2023-03-17T02:39:12.899Z,1.30
2023-03-17T02:41:39.384Z,1.27
2023-03-17T02:44:06.013Z,1.65
2023-03-17T02:46:32.638Z,2.17
2023-03-17T02:48:59.603Z,1.10
2023-03-17T02:51:26.252Z,1.13
2023-03-17T02:53:52.772Z,1.10
2023-03-17T02:56:20.631Z,1.40
2023-03-17T02:58:47.134Z,1.33
2023-03-17T03:01:13.704Z,1.23
2023-03-17T03:03:40.162Z,1.55
2023-03-17T03:06:07.167Z,1.55
2023-03-17T03:08:33.873Z,1.25
2023-03-17T03:11:00.424Z,1.45
2023-03-17T03:13:28.504Z,1.45
2023-03-17T03:15:55.002Z,1.40
2023-03-17T03:18:21.593Z,1.10
2023-03-17T03:20:48.103Z,1.20
2023-03-17T03:23:15.199Z,1.50
2023-03-17T03:25:42.294Z,1.50
2023-03-17T03:28:09.143Z,1.38
2023-03-17T03:30:37.860Z,1.50
2023-03-17T03:33:04.884Z,1.30
2023-03-17T03:35:32.157Z,1.38
2023-03-17T03:37:59.630Z,1.40
2023-03-17T03:40:26.354Z,1.25
2023-03-17T03:42:52.942Z,1.20
2023-03-17T03:45:19.598Z,1.10
2023-03-17T03:47:47.428Z,1.48
2023-03-17T03:50:14.355Z,1.65
2023-03-17T03:52:40.858Z,1.40
2023-03-17T03:55:08.296Z,1.27
2023-03-17T03:57:35.112Z,1.50
2023-03-17T04:00:02.080Z,1.35
2023-03-17T04:02:28.624Z,1.55
2023-03-17T04:04:56.605Z,1.58
2023-03-17T04:07:23.251Z,1.65
2023-03-17T04:09:49.813Z,2.35
2023-03-17T04:12:17.114Z,1.40
2023-03-17T04:14:43.774Z,1.60
2023-03-17T04:17:10.554Z,1.48
2023-03-17T04:19:37.198Z,1.20
2023-03-17T04:22:05.328Z,1.50
2023-03-17T04:24:31.830Z,1.30
2023-03-17T04:26:58.336Z,5.68
2023-03-17T04:29:24.790Z,1.70
2023-03-17T04:31:51.315Z,1.70
2023-03-17T04:34:19.007Z,1.60
2023-03-17T04:36:46.816Z,1.92
2023-03-17T04:39:14.983Z,1.73
2023-03-17T04:41:41.765Z,1.75
2023-03-17T04:44:08.496Z,2.00
2023-03-17T04:46:35.762Z,1.60
2023-03-17T04:49:02.394Z,2.20
2023-03-17T04:51:28.910Z,1.55
2023-03-17T04:53:55.376Z,1.48
2023-03-17T04:56:23.189Z,1.63
2023-03-17T04:58:49.649Z,1.60
2023-03-17T05:01:16.212Z,1.98
2023-03-17T05:03:42.725Z,1.77
2023-03-17T05:06:09.404Z,1.60
2023-03-17T05:08:35.914Z,2.33
2023-03-17T05:11:02.650Z,1.85
2023-03-17T05:13:30.498Z,1.70
2023-03-17T05:15:57.073Z,2.15
2023-03-17T05:18:25.296Z,1.80
2023-03-17T05:20:51.973Z,1.80
2023-03-17T05:23:18.738Z,2.17
2023-03-17T05:25:45.284Z,1.60
2023-03-17T05:28:11.760Z,2.10
2023-03-17T05:30:39.609Z,1.80
2023-03-17T05:33:06.256Z,1.90
2023-03-17T05:35:32.919Z,1.50
2023-03-17T05:37:59.488Z,2.17
2023-03-17T05:40:25.965Z,1.92
2023-03-17T05:42:52.546Z,1.90
2023-03-17T05:45:19.106Z,1.90
2023-03-17T05:47:46.965Z,2.20
2023-03-17T05:50:13.489Z,2.15
2023-03-17T05:52:40.191Z,1.90
2023-03-17T05:55:07.535Z,2.40
2023-03-17T05:57:34.239Z,2.13
2023-03-17T06:00:00.702Z,2.10
2023-03-17T06:02:27.252Z,1.98
2023-03-17T06:04:55.192Z,1.80
2023-03-17T06:07:21.688Z,2.08
2023-03-17T06:09:48.304Z,2.10
2023-03-17T06:12:14.825Z,1.85
2023-03-17T06:14:41.344Z,1.85
2023-03-17T06:17:08.245Z,2.28
2023-03-17T06:19:34.711Z,1.63
2023-03-17T06:22:02.546Z,2.40
2023-03-17T06:24:29.026Z,2.20
2023-03-17T06:26:55.718Z,1.88
2023-03-17T06:29:22.221Z,2.05
2023-03-17T06:31:48.759Z,1.85
2023-03-17T06:34:15.228Z,2.00
2023-03-17T06:36:41.714Z,1.77
2023-03-17T06:39:09.607Z,2.05
2023-03-17T06:41:36.075Z,2.17
2023-03-17T06:44:02.579Z,2.20
2023-03-17T06:46:29.031Z,2.00
2023-03-17T06:48:55.544Z,2.25
2023-03-17T06:51:22.178Z,1.80
2023-03-17T06:53:48.698Z,2.30
2023-03-17T06:56:29.101Z,2.05
2023-03-17T06:58:56.279Z,1.70
2023-03-17T07:01:22.822Z,2.00
2023-03-17T07:03:49.435Z,1.75
2023-03-17T07:06:16.060Z,1.73
2023-03-17T07:08:42.589Z,1.77
2023-03-17T07:11:09.091Z,1.92
2023-03-17T07:13:36.946Z,1.85
2023-03-17T07:16:04.182Z,2.00
2023-03-17T07:18:31.174Z,2.00
2023-03-17T07:20:57.901Z,2.15
2023-03-17T07:23:24.603Z,2.00
2023-03-17T07:25:51.225Z,2.00
2023-03-17T07:28:17.710Z,1.60
2023-03-17T07:30:45.671Z,1.70
2023-03-17T07:33:12.385Z,1.90
2023-03-17T07:35:38.991Z,1.90
2023-03-17T07:38:05.869Z,3.03
2023-03-17T07:40:34.876Z,2.13
2023-03-17T07:43:02.132Z,1.58
2023-03-17T07:45:28.929Z,2.03
2023-03-17T07:47:56.981Z,2.20
2023-03-17T07:50:23.470Z,1.90
2023-03-17T07:52:49.995Z,2.47
2023-03-17T07:55:16.597Z,1.90
2023-03-17T07:57:43.144Z,2.25
2023-03-17T08:00:11.518Z,2.83
2023-03-17T08:02:38.359Z,2.00
2023-03-17T08:05:07.337Z,2.38
2023-03-17T08:07:33.978Z,2.42
2023-03-17T08:10:00.539Z,2.20
2023-03-17T08:12:27.093Z,2.58
2023-03-17T08:14:53.580Z,2.47
2023-03-17T08:17:20.121Z,2.50
2023-03-17T08:19:46.795Z,2.50
2023-03-17T08:22:14.659Z,2.42
2023-03-17T08:24:41.210Z,2.45
2023-03-17T08:27:07.855Z,2.55
2023-03-17T08:29:34.509Z,2.42
2023-03-17T08:32:01.354Z,2.78
2023-03-17T08:34:27.869Z,2.05
2023-03-17T08:36:54.349Z,2.47
2023-03-17T08:39:22.445Z,2.80
2023-03-17T08:41:49.055Z,1.70
2023-03-17T08:44:15.588Z,2.60
2023-03-17T08:46:42.135Z,1.90
2023-03-17T08:49:10.191Z,3.15
2023-03-17T08:51:38.568Z,2.13
2023-03-17T08:54:06.241Z,2.53
2023-03-17T08:56:34.271Z,2.35
2023-03-17T08:59:00.846Z,2.08
2023-03-17T09:01:27.573Z,2.35
2023-03-17T09:03:55.100Z,2.80
2023-03-17T09:06:22.544Z,2.20
2023-03-17T09:08:49.782Z,2.22
2023-03-17T09:11:18.442Z,2.42
2023-03-17T09:13:47.060Z,2.60
2023-03-17T09:16:14.350Z,2.55
2023-03-17T09:18:41.008Z,2.58
2023-03-17T09:21:08.256Z,2.25
2023-03-17T09:23:34.812Z,2.25
2023-03-17T09:26:01.493Z,2.08
2023-03-17T09:28:28.119Z,2.28
2023-03-17T09:30:59.175Z,2.40
2023-03-17T09:33:25.665Z,2.10
2023-03-17T09:35:52.342Z,2.85
2023-03-17T09:38:18.872Z,2.65
2023-03-17T09:40:49.121Z,2.45
2023-03-17T09:43:26.613Z,2.55
2023-03-17T09:45:54.277Z,3.00
2023-03-17T09:48:35.881Z,2.78
2023-03-17T09:51:04.994Z,2.67
2023-03-17T09:53:35.132Z,2.90
2023-03-17T09:56:07.180Z,3.65
2023-03-17T09:58:35.392Z,3.00
2023-03-17T10:01:03.052Z,3.42
2023-03-17T10:03:31.909Z,3.13
2023-03-17T10:06:28.344Z,2.63
2023-03-17T10:09:00.547Z,5.15
2023-03-17T10:11:37.424Z,3.40
2023-03-17T10:14:11.045Z,3.17
2023-03-17T10:19:20.237Z,2.78
2023-03-17T10:21:51.369Z,3.35
2023-03-17T10:24:19.162Z,2.72
2023-03-17T10:26:48.724Z,3.20
2023-03-17T10:29:17.339Z,3.10
2023-03-17T10:31:43.895Z,2.75
2023-03-17T10:34:16.514Z,2.70
2023-03-17T10:36:46.102Z,2.60
2023-03-17T10:39:14.984Z,2.80
2023-03-17T10:41:51.744Z,2.38
2023-03-17T10:44:27.021Z,2.67
2023-03-17T10:46:55.553Z,2.83
2023-03-17T10:49:23.653Z,2.58
2023-03-17T10:51:52.343Z,3.22
2023-03-17T10:54:20.286Z,3.00
2023-03-17T10:56:49.157Z,2.10
2023-03-17T10:59:19.667Z,2.70
2023-03-17T11:01:52.001Z,2.33
2023-03-17T11:04:32.805Z,2.72
2023-03-17T11:07:00.949Z,2.83
2023-03-17T11:09:33.828Z,2.63
2023-03-17T11:12:02.766Z,3.22
2023-03-17T11:14:29.231Z,3.55
2023-03-17T11:16:57.754Z,2.70
2023-03-17T11:19:36.998Z,3.22
2023-03-17T11:22:09.219Z,2.75
2023-03-17T11:24:46.947Z,2.42
2023-03-17T11:27:21.084Z,2.47
2023-03-17T11:30:14.832Z,3.03
2023-03-17T11:32:44.901Z,2.95
2023-03-17T11:35:32.381Z,2.85
2023-03-17T11:38:24.228Z,2.92
2023-03-17T11:41:08.378Z,2.70
2023-03-17T11:43:42.531Z,2.50
2023-03-17T11:46:11.323Z,4.28
2023-03-17T11:48:49.025Z,2.72
2023-03-17T11:51:23.476Z,2.95
2023-03-17T11:54:09.715Z,2.40
2023-03-17T11:56:42.522Z,2.45
2023-03-17T11:59:17.376Z,2.92
2023-03-17T12:01:51.321Z,2.35
2023-03-17T12:04:23.961Z,3.17
2023-03-17T12:06:57.160Z,3.10
2023-03-17T12:09:30.180Z,2.90
2023-03-17T12:11:58.529Z,3.28
2023-03-17T12:14:29.334Z,2.70
2023-03-17T12:17:02.543Z,2.88
2023-03-17T12:19:37.567Z,2.58
2023-03-17T12:22:09.138Z,3.38
2023-03-17T12:24:40.151Z,2.83
2023-03-17T12:27:12.985Z,2.92
2023-03-17T12:29:42.860Z,2.70
2023-03-17T12:32:17.283Z,3.00
2023-03-17T12:34:50.314Z,3.42
2023-03-17T12:37:19.483Z,3.28
2023-03-17T12:39:52.268Z,2.90
2023-03-17T12:42:29.264Z,2.72
2023-03-17T12:45:18.505Z,2.70
2023-03-17T12:47:58.285Z,2.45
2023-03-17T12:50:40.584Z,2.80
2023-03-17T12:53:28.417Z,2.35
2023-03-17T12:55:59.132Z,2.53
2023-03-17T12:58:34.858Z,2.13
2023-03-17T13:01:11.790Z,2.38
2023-03-17T13:03:55.900Z,2.60
2023-03-17T13:06:24.309Z,2.90
2023-03-17T13:08:53.145Z,2.33
2023-03-17T13:11:27.286Z,2.50
2023-03-17T13:14:14.189Z,3.22
2023-03-17T13:16:41.885Z,2.17
2023-03-17T13:19:20.801Z,2.85
2023-03-17T13:22:17.598Z,2.50
2023-03-17T13:24:48.404Z,2.28
2023-03-17T13:27:43.580Z,3.63
2023-03-17T13:30:43.203Z,2.17
2023-03-17T13:33:19.358Z,2.25
2023-03-17T13:35:58.194Z,2.50
2023-03-17T13:39:04.879Z,2.60
2023-03-17T13:41:57.676Z,2.55
2023-03-17T13:44:38.838Z,2.00
2023-03-17T13:47:28.009Z,2.25
2023-03-17T13:49:58.065Z,2.80
2023-03-17T13:52:27.560Z,2.30
2023-03-17T13:55:01.923Z,3.13
2023-03-17T13:57:29.751Z,2.90
2023-03-17T14:00:01.567Z,2.63
2023-03-17T14:02:31.270Z,3.08
2023-03-17T14:05:00.364Z,2.47
2023-03-17T14:07:31.109Z,2.85
2023-03-17T14:09:59.971Z,2.47
2023-03-17T14:12:33.367Z,3.03
2023-03-17T14:17:34.784Z,2.65
2023-03-17T14:20:06.974Z,3.00
2023-03-17T14:22:39.631Z,2.67
2023-03-17T14:25:13.981Z,2.87
2023-03-17T14:27:40.611Z,2.55
2023-03-17T14:30:17.842Z,2.22
2023-03-17T14:32:47.723Z,2.72
2023-03-17T14:35:14.716Z,2.20
2023-03-17T14:37:41.291Z,3.10
2023-03-17T14:40:21.008Z,2.35
2023-03-17T14:42:47.583Z,3.00
2023-03-17T14:45:22.488Z,2.78
2023-03-17T14:47:50.208Z,2.80
2023-03-17T14:50:22.804Z,3.35
2023-03-17T14:52:50.194Z,3.53
2023-03-17T14:55:17.203Z,2.40
2023-03-17T14:57:49.503Z,2.05
2023-03-17T15:00:30.942Z,2.47
2023-03-17T15:02:59.365Z,2.97
2023-03-17T15:05:30.199Z,2.65
2023-03-17T15:07:57.177Z,2.90
2023-03-17T15:10:26.465Z,2.75
2023-03-17T15:13:01.426Z,2.85
2023-03-17T15:15:32.512Z,2.70
2023-03-17T15:18:02.908Z,2.70
2023-03-17T15:20:29.991Z,3.63
2023-03-17T15:22:59.091Z,3.13
2023-03-17T15:25:32.876Z,2.53
2023-03-17T15:28:00.209Z,3.55
2023-03-17T15:30:29.441Z,2.72
2023-03-17T15:33:01.695Z,2.97
2023-03-17T15:35:28.542Z,3.00
2023-03-17T15:37:55.532Z,3.63
2023-03-17T15:40:22.091Z,3.03
2023-03-17T15:42:48.628Z,3.17
2023-03-17T15:45:16.026Z,3.25
2023-03-17T15:47:43.782Z,3.72
2023-03-17T15:50:16.674Z,3.60
2023-03-17T15:52:44.202Z,3.78
2023-03-17T15:55:16.354Z,3.40
2023-03-17T15:57:48.251Z,4.90
2023-03-17T16:00:21.442Z,4.15
2023-03-17T16:02:50.453Z,3.55
2023-03-17T16:05:20.912Z,3.03
2023-03-17T16:07:47.545Z,3.00
2023-03-17T16:10:19.808Z,2.38
2023-03-17T16:12:46.725Z,1.80
2023-03-17T16:15:23.147Z,1.90
2023-03-17T16:17:52.459Z,1.90
2023-03-17T16:20:24.784Z,1.23
2023-03-17T16:22:53.115Z,1.27
2023-03-17T16:25:23.528Z,1.40
2023-03-17T16:27:50.355Z,1.42
2023-03-17T16:30:18.584Z,1.58
2023-03-17T16:32:45.329Z,1.20
2023-03-17T16:35:17.136Z,1.45
2023-03-17T16:37:45.742Z,1.33
2023-03-17T16:40:17.819Z,1.10
2023-03-17T16:42:44.571Z,1.50
2023-03-17T16:45:16.850Z,1.58
2023-03-17T16:47:43.334Z,1.27
2023-03-17T16:50:15.218Z,2.00
2023-03-17T16:52:41.865Z,1.67
2023-03-17T16:55:10.344Z,1.10
2023-03-17T16:57:37.870Z,1.25
2023-03-17T17:00:06.234Z,1.50
2023-03-17T17:02:32.974Z,1.02
2023-03-17T17:04:59.482Z,0.90
2023-03-17T17:07:26.041Z,1.27
2023-03-17T17:09:52.515Z,1.33
2023-03-17T17:12:20.308Z,1.50
2023-03-17T17:14:46.779Z,1.50
2023-03-17T17:17:13.790Z,1.55
2023-03-17T17:19:40.286Z,1.30
2023-03-17T17:22:06.791Z,1.25
2023-03-17T17:24:33.291Z,2.15
2023-03-17T17:26:59.769Z,1.48
2023-03-17T17:29:27.709Z,1.02
2023-03-17T17:31:54.443Z,1.42
2023-03-17T17:34:20.998Z,1.38
2023-03-17T17:36:47.569Z,0.90
2023-03-17T17:39:14.045Z,1.48
2023-03-17T17:41:40.544Z,0.80
2023-03-17T17:44:07.064Z,1.15
2023-03-17T17:46:34.905Z,1.35
2023-03-17T17:49:01.454Z,1.60
2023-03-17T17:51:27.982Z,1.00
2023-03-17T17:53:54.525Z,1.63
2023-03-17T17:56:21.046Z,1.65
2023-03-17T17:58:47.692Z,1.40
2023-03-17T18:01:14.463Z,1.60
2023-03-17T18:03:42.348Z,1.35
2023-03-17T18:06:09.099Z,1.20
2023-03-17T18:08:36.951Z,1.38
2023-03-17T18:11:03.441Z,1.70
2023-03-17T18:13:29.961Z,1.80
2023-03-17T18:15:56.432Z,3.03
2023-03-17T18:18:22.985Z,5.28
2023-03-17T18:20:51.098Z,5.35
2023-03-17T18:23:17.614Z,2.90
2023-03-17T18:25:44.095Z,2.38
2023-03-17T18:28:10.627Z,2.10
2023-03-17T18:30:37.602Z,1.98
2023-03-17T18:33:07.327Z,3.10
2023-03-17T18:35:34.280Z,2.45
2023-03-17T18:38:02.396Z,2.40
2023-03-17T18:40:29.418Z,2.50
2023-03-17T18:42:55.933Z,2.28
2023-03-17T18:45:22.617Z,2.60
2023-03-17T18:47:49.154Z,2.50
2023-03-17T18:50:16.828Z,2.15
2023-03-17T18:52:44.161Z,2.10
2023-03-17T18:55:13.901Z,1.95
2023-03-17T18:57:43.094Z,3.85
2023-03-17T19:00:12.474Z,2.03
2023-03-17T19:02:39.186Z,2.30
2023-03-17T19:05:06.521Z,2.53
2023-03-17T19:07:33.455Z,2.90
2023-03-17T19:10:00.304Z,2.40
2023-03-17T19:12:28.289Z,2.50
2023-03-17T19:14:54.769Z,2.42
2023-03-17T19:17:21.256Z,3.75
2023-03-17T19:19:47.820Z,2.85
2023-03-17T19:22:14.394Z,2.40
2023-03-17T19:24:40.938Z,2.47
2023-03-17T19:27:07.496Z,2.88
2023-03-17T19:29:35.330Z,2.78
2023-03-17T19:32:01.863Z,2.80
2023-03-17T19:34:28.373Z,2.78
2023-03-17T19:36:55.023Z,3.30
2023-03-17T19:39:22.104Z,3.72
2023-03-17T19:41:48.691Z,3.60
2023-03-17T19:44:15.204Z,4.00
2023-03-17T19:46:43.042Z,4.65
2023-03-17T19:49:09.799Z,4.30
2023-03-17T19:51:36.354Z,4.65
2023-03-17T19:54:03.175Z,4.90
2023-03-17T19:56:29.713Z,4.18
2023-03-17T19:58:56.199Z,4.00
2023-03-17T20:01:22.777Z,4.78
2023-03-17T20:03:50.759Z,4.60
2023-03-17T20:06:17.265Z,4.45
2023-03-17T20:08:44.326Z,4.15
2023-03-17T20:11:12.356Z,4.13
2023-03-17T20:13:39.857Z,3.60
2023-03-17T20:16:08.666Z,3.10
2023-03-17T20:18:35.432Z,2.97
2023-03-17T20:21:04.556Z,3.00
2023-03-17T20:23:31.390Z,2.97
2023-03-17T20:25:58.075Z,2.67
2023-03-17T20:28:24.781Z,3.25
2023-03-17T20:30:51.302Z,3.30
2023-03-17T20:33:18.132Z,3.53
2023-03-17T20:35:45.993Z,3.45
2023-03-17T20:38:14.117Z,3.63
2023-03-17T20:40:40.603Z,3.65
2023-03-17T20:43:07.223Z,2.70
2023-03-17T20:45:33.870Z,3.42
2023-03-17T20:48:00.371Z,3.05
2023-03-17T20:50:26.889Z,2.65
2023-03-17T20:52:53.379Z,2.15
2023-03-17T20:55:21.293Z,1.98
2023-03-17T20:57:47.755Z,2.50
2023-03-17T21:00:16.421Z,2.33
2023-03-17T21:02:42.965Z,1.85
2023-03-17T21:05:13.259Z,2.22
2023-03-17T21:07:39.710Z,2.10
2023-03-17T21:10:06.629Z,1.90
2023-03-17T21:12:34.459Z,2.10
2023-03-17T21:15:00.934Z,2.50
2023-03-17T21:17:27.706Z,2.40
2023-03-17T21:19:54.182Z,2.53
2023-03-17T21:22:20.734Z,2.78
2023-03-17T21:24:47.215Z,2.08
2023-03-17T21:27:13.717Z,2.42
2023-03-17T21:29:41.594Z,2.30
2023-03-17T21:32:08.193Z,3.20
2023-03-17T21:34:35.730Z,2.42
2023-03-17T21:37:02.247Z,2.92
2023-03-17T21:39:29.822Z,2.70
2023-03-17T21:41:57.196Z,2.50
2023-03-17T21:44:24.270Z,2.90
2023-03-17T21:46:52.206Z,3.10
2023-03-17T21:49:18.730Z,2.90
2023-03-17T21:51:46.552Z,2.70
2023-03-17T21:54:13.812Z,3.00
2023-03-17T21:56:40.447Z,3.85
2023-03-17T21:59:07.548Z,3.53
2023-03-17T22:01:34.169Z,3.40
2023-03-17T22:04:02.020Z,3.20
2023-03-17T22:06:28.575Z,3.50
2023-03-17T22:08:55.274Z,3.55
2023-03-17T22:11:21.952Z,3.50
2023-03-17T22:13:48.617Z,3.20
2023-03-17T22:16:16.444Z,3.90
2023-03-17T22:18:43.512Z,5.32
2023-03-17T22:21:11.374Z,4.60
2023-03-17T22:23:38.583Z,4.57
2023-03-17T22:26:05.498Z,4.07
2023-03-17T22:28:31.986Z,3.92
2023-03-17T22:30:58.461Z,4.40
2023-03-17T22:33:24.966Z,4.85
2023-03-17T22:35:51.473Z,4.43
2023-03-17T22:38:19.582Z,4.50
2023-03-17T22:40:46.055Z,4.18
2023-03-17T22:43:12.566Z,4.75
2023-03-17T22:45:39.166Z,4.47
2023-03-17T22:48:06.146Z,4.80
2023-03-17T22:50:32.922Z,4.68
2023-03-17T22:52:59.624Z,4.70
2023-03-17T22:55:27.502Z,5.35
2023-03-17T22:57:54.054Z,5.30
2023-03-17T23:00:21.141Z,4.82
2023-03-17T23:02:51.402Z,4.53
2023-03-17T23:05:17.971Z,5.00
2023-03-17T23:07:51.910Z,4.55
2023-03-17T23:10:20.541Z,4.75
2023-03-17T23:12:48.713Z,4.80
2023-03-17T23:15:15.339Z,4.60
2023-03-17T23:17:42.083Z,4.65
2023-03-17T23:20:09.995Z,4.93
2023-03-17T23:22:36.465Z,5.07
2023-03-17T23:25:03.215Z,5.38
2023-03-17T23:27:29.925Z,4.82
2023-03-17T23:29:57.742Z,5.22
2023-03-17T23:32:24.205Z,4.75
2023-03-17T23:34:50.745Z,5.65
2023-03-17T23:37:17.205Z,5.57
2023-03-17T23:39:43.697Z,5.38
2023-03-17T23:42:10.163Z,5.78
2023-03-17T23:44:36.645Z,6.28
2023-03-17T23:47:04.754Z,6.78
2023-03-17T23:49:31.233Z,6.22
2023-03-17T23:51:57.663Z,6.47
2023-03-17T23:54:24.247Z,6.43
2023-03-17T23:56:50.724Z,6.38
2023-03-17T23:59:17.205Z,7.55
